createdAt,value
2023-04-18T00:01:44.682Z,12.34
2023-04-18T00:04:13.986Z,12.30
2023-04-18T00:06:41.753Z,12.27
2023-04-18T00:09:09.042Z,12.24
2023-04-18T00:11:36.497Z,12.08
2023-04-18T00:14:06.335Z,11.99
2023-04-18T00:16:33.637Z,11.99
2023-04-18T00:19:02.387Z,12.03
2023-04-18T00:21:30.172Z,12.08
2023-04-18T00:23:57.560Z,12.10
2023-04-18T00:26:24.919Z,12.06
2023-04-18T00:28:53.596Z,12.09
2023-04-18T00:31:20.732Z,12.09
2023-04-18T00:33:48.190Z,12.02
2023-04-18T00:36:15.834Z,11.99
2023-04-18T00:38:42.955Z,12.04
2023-04-18T00:41:10.284Z,12.01
2023-04-18T00:43:38.544Z,12.05
2023-04-18T00:46:06.373Z,12.07
2023-04-18T00:48:34.138Z,11.98
2023-04-18T00:51:01.950Z,12.01
2023-04-18T00:53:29.500Z,11.97
2023-04-18T00:55:57.400Z,11.91
2023-04-18T00:58:24.848Z,11.90
2023-04-18T01:00:52.230Z,11.93
2023-04-18T01:03:20.009Z,11.85
2023-04-18T01:05:47.245Z,11.84
2023-04-18T01:08:14.642Z,11.82
2023-04-18T01:10:42.108Z,11.84
2023-04-18T01:13:16.031Z,11.80
2023-04-18T01:15:45.181Z,11.81
2023-04-18T01:18:13.358Z,11.84
2023-04-18T01:20:45.860Z,11.88
2023-04-18T01:23:16.388Z,11.90
2023-04-18T01:25:44.459Z,11.96
2023-04-18T01:28:13.790Z,11.92
2023-04-18T01:30:41.482Z,11.91
2023-04-18T01:33:08.779Z,11.88
2023-04-18T01:35:36.068Z,11.89
2023-04-18T01:38:03.596Z,11.82
2023-04-18T01:40:30.773Z,11.82
2023-04-18T01:42:57.915Z,11.79
2023-04-18T01:45:25.501Z,11.79
2023-04-18T01:47:52.748Z,11.60
2023-04-18T01:50:20.009Z,11.47
2023-04-18T01:52:48.130Z,11.29
2023-04-18T01:55:16.367Z,11.17
2023-04-18T01:57:44.214Z,11.13
2023-04-18T02:00:12.403Z,11.10
2023-04-18T02:02:41.758Z,11.16
2023-04-18T02:05:09.567Z,11.26
2023-04-18T02:07:38.692Z,11.37
2023-04-18T02:10:06.627Z,11.43
2023-04-18T02:12:34.405Z,11.48
2023-04-18T02:15:01.803Z,11.54
2023-04-18T02:17:29.449Z,11.58
2023-04-18T02:19:56.676Z,11.64
2023-04-18T02:22:26.054Z,11.66
2023-04-18T02:24:53.751Z,11.64
2023-04-18T02:27:20.958Z,11.64
2023-04-18T02:29:48.130Z,11.69
2023-04-18T02:32:15.597Z,11.71
2023-04-18T02:34:44.444Z,11.77
2023-04-18T02:37:11.611Z,11.71
2023-04-18T02:39:40.179Z,11.67
2023-04-18T02:42:07.413Z,11.70
2023-04-18T02:44:34.588Z,11.72
2023-04-18T02:47:02.109Z,11.71
2023-04-18T02:49:30.166Z,11.73
2023-04-18T02:51:58.239Z,11.72
2023-04-18T02:54:25.664Z,11.69
2023-04-18T02:56:54.500Z,11.72
2023-04-18T02:59:22.280Z,11.81
2023-04-18T03:01:52.559Z,11.80
2023-04-18T03:04:20.309Z,11.81
2023-04-18T03:06:49.046Z,11.73
2023-04-18T03:09:18.094Z,11.62
2023-04-18T03:11:47.485Z,11.49
2023-04-18T03:14:15.629Z,11.08
2023-04-18T03:16:44.041Z,10.87
2023-04-18T03:19:12.635Z,10.74
2023-04-18T03:21:39.970Z,10.85
2023-04-18T03:24:10.224Z,10.64
2023-04-18T03:26:39.404Z,10.66
2023-04-18T03:29:09.781Z,10.60
2023-04-18T03:31:37.428Z,10.59
2023-04-18T03:34:04.553Z,10.56
2023-04-18T03:36:32.209Z,10.57
2023-04-18T03:38:59.726Z,10.58
2023-04-18T03:41:27.091Z,10.61
2023-04-18T03:43:55.128Z,10.58
2023-04-18T03:46:23.005Z,10.54
2023-04-18T03:48:50.735Z,10.55
2023-04-18T03:51:17.815Z,10.54
2023-04-18T03:53:46.628Z,10.58
2023-04-18T03:56:13.871Z,10.58
2023-04-18T03:58:42.203Z,10.61
2023-04-18T04:01:09.620Z,10.71
2023-04-18T04:03:37.520Z,10.74
2023-04-18T04:06:05.502Z,10.82
2023-04-18T04:08:33.853Z,10.89
2023-04-18T04:11:01.978Z,10.96
2023-04-18T04:13:29.497Z,11.02
2023-04-18T04:15:57.299Z,11.08
2023-04-18T04:18:31.011Z,11.20
2023-04-18T04:20:59.259Z,11.23
2023-04-18T04:23:27.950Z,11.21
2023-04-18T04:25:56.001Z,11.27
2023-04-18T04:28:24.683Z,11.32
2023-04-18T04:30:53.246Z,11.35
2023-04-18T04:33:22.171Z,11.39
2023-04-18T04:35:49.859Z,11.47
2023-04-18T04:38:20.069Z,11.48
2023-04-18T04:40:47.588Z,11.39
2023-04-18T04:43:15.736Z,11.42
2023-04-18T04:45:44.740Z,11.47
2023-04-18T04:48:12.528Z,11.41
2023-04-18T04:50:41.897Z,11.46
2023-04-18T04:53:11.901Z,11.47
2023-04-18T04:55:39.511Z,11.46
2023-04-18T04:58:07.267Z,11.53
2023-04-18T05:00:35.292Z,11.56
2023-04-18T05:03:02.638Z,11.50
2023-04-18T05:05:30.491Z,11.65
2023-04-18T05:07:58.128Z,11.68
2023-04-18T05:10:25.612Z,11.64
2023-04-18T05:12:52.856Z,11.71
2023-04-18T05:15:20.859Z,11.64
2023-04-18T05:17:48.106Z,11.65
2023-04-18T05:20:16.092Z,11.57
2023-04-18T05:22:43.500Z,11.54
2023-04-18T05:25:10.754Z,11.50
2023-04-18T05:27:38.227Z,11.52
2023-04-18T05:30:06.457Z,11.55
2023-04-18T05:32:33.750Z,11.28
2023-04-18T05:35:00.917Z,11.04
2023-04-18T05:37:28.363Z,10.97
2023-04-18T05:39:55.557Z,10.82
2023-04-18T05:42:23.024Z,10.76
2023-04-18T05:44:50.635Z,10.77
2023-04-18T05:47:17.953Z,10.78
2023-04-18T05:49:45.128Z,10.82
2023-04-18T05:52:12.669Z,10.75
2023-04-18T05:54:39.835Z,10.73
2023-04-18T05:57:06.904Z,10.67
2023-04-18T05:59:34.547Z,10.69
2023-04-18T06:02:02.081Z,10.64
2023-04-18T06:04:29.879Z,10.66
2023-04-18T06:06:57.170Z,10.71
2023-04-18T06:09:24.329Z,10.76
2023-04-18T06:11:51.764Z,10.79
2023-04-18T06:14:18.870Z,11.00
2023-04-18T06:16:46.103Z,10.97
2023-04-18T06:19:13.514Z,11.03
2023-04-18T06:21:42.820Z,11.39
2023-04-18T06:24:10.535Z,11.60
2023-04-18T06:26:38.135Z,11.58
2023-04-18T06:29:05.341Z,11.97
2023-04-18T06:31:32.638Z,12.21
2023-04-18T06:34:00.096Z,12.54
2023-04-18T06:36:27.558Z,12.65
2023-04-18T06:38:54.848Z,12.86
2023-04-18T06:41:22.883Z,12.99
2023-04-18T06:44:02.613Z,13.05
2023-04-18T06:46:32.805Z,13.45
2023-04-18T06:49:00.563Z,13.19
2023-04-18T06:51:28.052Z,13.20
2023-04-18T06:53:55.718Z,13.72
2023-04-18T06:56:23.006Z,14.34
2023-04-18T06:58:50.212Z,14.31
2023-04-18T07:01:20.370Z,14.67
2023-04-18T07:03:47.755Z,14.89
2023-04-18T07:06:15.334Z,14.78
2023-04-18T07:08:42.808Z,15.11
2023-04-18T07:11:11.622Z,14.69
2023-04-18T07:13:38.958Z,14.96
2023-04-18T07:16:07.311Z,14.95
2023-04-18T07:18:37.945Z,15.38
2023-04-18T07:21:09.198Z,15.05
2023-04-18T07:23:36.898Z,15.77
2023-04-18T07:26:05.859Z,15.53
2023-04-18T07:28:33.308Z,15.11
2023-04-18T07:31:03.194Z,15.02
2023-04-18T07:33:33.961Z,15.82
2023-04-18T07:36:01.917Z,15.43
2023-04-18T07:38:30.318Z,15.79
2023-04-18T07:41:01.926Z,15.68
2023-04-18T07:43:29.474Z,15.77
2023-04-18T07:45:56.694Z,15.69
2023-04-18T07:48:25.253Z,15.66
2023-04-18T07:50:53.372Z,15.75
2023-04-18T07:53:20.759Z,15.59
2023-04-18T07:55:48.197Z,15.83
2023-04-18T07:58:17.090Z,16.33
2023-04-18T08:00:45.038Z,16.02
2023-04-18T08:03:13.231Z,16.07
2023-04-18T08:05:42.317Z,15.50
2023-04-18T08:08:11.501Z,16.05
2023-04-18T08:10:39.416Z,15.98
2023-04-18T08:13:06.974Z,15.64
2023-04-18T08:15:34.337Z,15.59
2023-04-18T08:18:02.298Z,15.71
2023-04-18T08:20:29.526Z,15.53
2023-04-18T08:23:06.878Z,15.48
2023-04-18T08:25:36.618Z,15.20
2023-04-18T08:31:35.240Z,15.52
2023-04-18T08:34:04.977Z,15.76
2023-04-18T08:36:32.416Z,15.46
2023-04-18T08:38:59.766Z,15.47
2023-04-18T08:41:28.805Z,15.49
2023-04-18T08:43:57.153Z,15.62
2023-04-18T08:46:24.586Z,16.39
2023-04-18T08:48:52.657Z,16.34
2023-04-18T08:51:22.639Z,16.59
2023-04-18T08:53:50.777Z,16.82
2023-04-18T08:56:22.416Z,16.67
2023-04-18T08:58:50.664Z,16.42
2023-04-18T09:01:18.428Z,16.40
2023-04-18T09:03:45.750Z,16.05
2023-04-18T09:06:18.779Z,15.96
2023-04-18T09:09:02.794Z,16.21
2023-04-18T09:11:31.831Z,15.97
2023-04-18T09:13:59.600Z,16.03
2023-04-18T09:19:56.783Z,16.48
2023-04-18T09:22:24.363Z,16.81
2023-04-18T09:24:55.557Z,16.92
2023-04-18T09:30:42.347Z,16.96
2023-04-18T09:36:41.049Z,17.31
2023-04-18T09:39:09.311Z,17.67
2023-04-18T09:41:36.696Z,17.55
2023-04-18T09:44:17.218Z,17.93
2023-04-18T09:46:47.443Z,17.63
2023-04-18T09:49:16.187Z,17.12
2023-04-18T09:51:44.539Z,17.63
2023-04-18T09:54:15.959Z,18.41
2023-04-18T09:56:44.655Z,19.00
2023-04-18T09:59:12.955Z,19.06
2023-04-18T10:01:41.312Z,18.63
2023-04-18T10:04:09.822Z,18.51
2023-04-18T10:06:39.866Z,17.96
2023-04-18T10:09:08.708Z,18.20
2023-04-18T10:11:36.668Z,17.64
2023-04-18T10:14:07.175Z,17.32
2023-04-18T10:16:37.939Z,17.23
2023-04-18T10:19:25.242Z,17.19
2023-04-18T10:22:07.436Z,17.50
2023-04-18T10:25:16.297Z,17.53
2023-04-18T10:27:50.116Z,17.95
2023-04-18T10:30:19.215Z,18.44
2023-04-18T10:32:46.835Z,18.39
2023-04-18T10:35:15.999Z,18.26
2023-04-18T10:37:52.998Z,17.92
2023-04-18T10:40:34.535Z,18.42
2023-04-18T10:43:02.105Z,19.07
2023-04-18T10:45:32.566Z,18.47
2023-04-18T10:48:23.115Z,18.75
2023-04-18T10:51:13.392Z,18.59
2023-04-18T10:53:51.110Z,19.78
2023-04-18T10:56:18.902Z,19.85
2023-04-18T10:58:52.563Z,19.50
2023-04-18T11:01:31.754Z,19.19
2023-04-18T11:04:00.425Z,18.42
2023-04-18T11:09:11.777Z,18.46
2023-04-18T11:11:39.861Z,18.30
2023-04-18T11:14:07.268Z,17.77
2023-04-18T11:16:35.098Z,17.64
2023-04-18T11:19:23.716Z,18.05
2023-04-18T11:21:51.868Z,18.37
2023-04-18T11:24:24.541Z,17.86
2023-04-18T11:26:56.042Z,17.67
2023-04-18T11:29:23.981Z,17.95
2023-04-18T11:31:55.278Z,18.11
2023-04-18T11:34:30.699Z,18.12
2023-04-18T11:36:58.009Z,18.06
2023-04-18T11:39:26.082Z,17.89
2023-04-18T11:41:55.885Z,18.37
2023-04-18T11:44:24.911Z,18.65
2023-04-18T11:46:53.486Z,19.05
2023-04-18T11:49:32.139Z,19.61
2023-04-18T11:52:00.095Z,18.65
2023-04-18T11:54:40.699Z,18.78
2023-04-18T11:57:20.657Z,19.13
2023-04-18T11:59:50.171Z,18.88
2023-04-18T12:02:18.077Z,18.47
2023-04-18T12:04:58.863Z,18.90
2023-04-18T12:07:40.440Z,18.87
2023-04-18T12:10:10.133Z,18.68
2023-04-18T12:12:37.327Z,18.67
2023-04-18T12:15:09.534Z,18.76
2023-04-18T12:17:38.527Z,18.87
2023-04-18T12:20:12.595Z,19.01
2023-04-18T12:22:49.096Z,18.79
2023-04-18T12:25:27.122Z,18.81
2023-04-18T12:27:59.036Z,18.74
2023-04-18T12:30:31.070Z,19.13
2023-04-18T12:33:01.160Z,18.64
2023-04-18T12:35:32.132Z,18.72
2023-04-18T12:38:01.269Z,19.05
2023-04-18T12:40:29.877Z,18.86
2023-04-18T12:42:57.209Z,18.79
2023-04-18T12:45:25.215Z,18.30
2023-04-18T12:47:53.429Z,18.32
2023-04-18T12:50:25.347Z,18.53
2023-04-18T12:52:54.549Z,18.43
2023-04-18T12:55:22.901Z,18.53
2023-04-18T12:57:54.301Z,18.66
2023-04-18T13:00:24.947Z,18.72
2023-04-18T13:02:52.901Z,18.78
2023-04-18T13:05:22.388Z,19.25
2023-04-18T13:07:56.220Z,19.68
2023-04-18T13:10:32.671Z,19.47
2023-04-18T13:13:00.551Z,19.00
2023-04-18T13:15:27.837Z,18.34
2023-04-18T13:17:56.699Z,18.55
2023-04-18T13:20:24.590Z,18.13
2023-04-18T13:22:51.806Z,18.40
2023-04-18T13:25:18.969Z,18.37
2023-04-18T13:27:46.703Z,18.41
2023-04-18T13:30:13.993Z,17.94
2023-04-18T13:32:43.196Z,17.95
2023-04-18T13:35:11.600Z,18.21
2023-04-18T13:37:39.663Z,18.40
2023-04-18T13:40:08.063Z,18.38
2023-04-18T13:42:39.542Z,18.16
2023-04-18T13:45:07.506Z,17.70
2023-04-18T13:47:37.860Z,17.84
2023-04-18T13:50:10.031Z,17.61
2023-04-18T13:52:37.591Z,17.52
2023-04-18T13:55:05.336Z,17.43
2023-04-18T13:57:36.370Z,17.67
2023-04-18T14:00:06.473Z,18.06
2023-04-18T14:02:39.065Z,18.44
2023-04-18T14:05:07.551Z,18.57
2023-04-18T14:07:35.831Z,18.68
2023-04-18T14:10:03.345Z,18.93
2023-04-18T14:12:31.425Z,18.55
2023-04-18T14:14:58.676Z,18.07
2023-04-18T14:17:26.079Z,17.86
2023-04-18T14:19:53.648Z,17.68
2023-04-18T14:22:20.892Z,17.62
2023-04-18T14:24:51.150Z,17.89
2023-04-18T14:27:18.874Z,18.15
2023-04-18T14:29:46.486Z,18.21
2023-04-18T14:32:13.755Z,18.32
2023-04-18T14:34:41.225Z,18.35
2023-04-18T14:37:08.573Z,18.25
2023-04-18T14:39:36.264Z,18.25
2023-04-18T14:42:03.941Z,17.98
2023-04-18T14:44:31.634Z,18.15
2023-04-18T14:46:58.874Z,18.22
2023-04-18T14:49:26.468Z,18.18
2023-04-18T14:51:56.539Z,18.07
2023-04-18T14:54:23.782Z,18.05
2023-04-18T14:56:51.701Z,18.12
2023-04-18T14:59:19.236Z,18.14
2023-04-18T15:01:46.905Z,18.28
2023-04-18T15:04:15.044Z,18.31
2023-04-18T15:06:42.579Z,18.21
2023-04-18T15:09:09.700Z,18.29
2023-04-18T15:11:37.550Z,18.24
2023-04-18T15:14:04.814Z,18.34
2023-04-18T15:16:32.212Z,18.29
2023-04-18T15:19:00.477Z,18.18
2023-04-18T15:21:27.770Z,18.14
2023-04-18T15:23:55.009Z,18.01
2023-04-18T15:26:22.465Z,18.12
2023-04-18T15:28:49.928Z,18.12
2023-04-18T15:32:56.116Z,18.59
2023-04-18T15:35:24.446Z,18.59
2023-04-18T15:37:53.785Z,17.95
2023-04-18T15:40:21.022Z,17.98
2023-04-18T15:42:51.050Z,18.14
2023-04-18T15:45:18.712Z,18.06
2023-04-18T15:47:46.171Z,17.95
2023-04-18T15:50:16.409Z,17.81
2023-04-18T15:52:44.121Z,17.80
2023-04-18T15:55:13.232Z,17.83
2023-04-18T15:57:41.876Z,17.88
2023-04-18T16:00:20.911Z,17.86
2023-04-18T16:02:48.768Z,17.77
2023-04-18T16:05:16.320Z,17.82
2023-04-18T16:07:43.954Z,17.48
2023-04-18T16:10:12.962Z,17.21
2023-04-18T16:12:40.750Z,17.20
2023-04-18T16:15:10.137Z,17.22
2023-04-18T16:17:38.280Z,17.22
2023-04-18T16:20:08.314Z,16.82
2023-04-18T16:22:36.652Z,16.79
2023-04-18T16:25:07.480Z,16.80
2023-04-18T16:27:34.725Z,16.81
2023-04-18T16:30:03.243Z,16.88
2023-04-18T16:32:31.087Z,16.76
2023-04-18T16:34:58.668Z,16.73
2023-04-18T16:37:26.080Z,16.77
2023-04-18T16:39:53.722Z,16.59
2023-04-18T16:42:21.194Z,16.60
2023-04-18T16:44:48.754Z,16.67
2023-04-18T16:47:16.339Z,16.66
2023-04-18T16:49:44.954Z,16.69
2023-04-18T16:52:12.238Z,16.75
2023-04-18T16:54:40.372Z,16.67
2023-04-18T16:57:09.797Z,16.73
2023-04-18T16:59:37.095Z,16.57
2023-04-18T17:02:04.725Z,16.63
2023-04-18T17:04:32.266Z,16.70
2023-04-18T17:07:00.811Z,16.54
2023-04-18T17:09:28.634Z,16.34
2023-04-18T17:11:56.337Z,16.25
2023-04-18T17:14:23.950Z,16.31
2023-04-18T17:16:53.520Z,16.24
2023-04-18T17:19:21.444Z,16.18
2023-04-18T17:21:51.027Z,16.06
2023-04-18T17:24:19.280Z,16.10
2023-04-18T17:26:48.014Z,15.95
2023-04-18T17:29:16.379Z,15.78
2023-04-18T17:31:45.286Z,15.54
2023-04-18T17:34:13.234Z,15.49
2023-04-18T17:36:40.757Z,15.40
2023-04-18T17:39:09.721Z,15.34
2023-04-18T17:41:39.236Z,15.27
2023-04-18T17:44:08.480Z,15.21
2023-04-18T17:46:37.012Z,15.20
2023-04-18T17:49:05.504Z,15.11
2023-04-18T17:51:33.406Z,15.00
2023-04-18T17:54:04.464Z,14.93
2023-04-18T17:56:33.126Z,14.83
2023-04-18T17:59:02.446Z,14.72
2023-04-18T18:05:03.849Z,14.44
2023-04-18T18:07:37.936Z,14.26
2023-04-18T18:10:12.773Z,14.15
2023-04-18T18:12:42.944Z,14.10
2023-04-18T18:15:11.705Z,13.98
2023-04-18T18:17:39.436Z,13.92
2023-04-18T18:20:10.152Z,13.85
2023-04-18T18:22:38.284Z,13.75
2023-04-18T18:25:09.375Z,13.64
2023-04-18T18:27:37.538Z,13.61
2023-04-18T18:30:08.844Z,13.54
2023-04-18T18:32:40.621Z,13.47
2023-04-18T18:35:11.122Z,13.43
2023-04-18T18:37:42.898Z,13.37
2023-04-18T18:40:16.042Z,13.34
2023-04-18T18:42:45.300Z,13.30
2023-04-18T18:45:13.724Z,13.24
2023-04-18T18:47:41.306Z,13.17
2023-04-18T18:50:13.340Z,13.15
2023-04-18T18:52:46.080Z,13.17
2023-04-18T18:55:18.021Z,13.15
2023-04-18T18:57:50.117Z,13.23
2023-04-18T19:00:21.224Z,13.23
2023-04-18T19:02:49.187Z,13.17
2023-04-18T19:05:22.693Z,13.11
2023-04-18T19:07:51.999Z,13.06
2023-04-18T19:10:26.123Z,12.96
2023-04-18T19:12:54.069Z,12.99
2023-04-18T19:15:23.360Z,12.96
2023-04-18T19:21:23.107Z,13.10
2023-04-18T19:23:57.694Z,13.01
2023-04-18T19:26:26.008Z,13.82
2023-04-18T19:28:54.712Z,14.14
2023-04-18T19:31:28.443Z,14.32
2023-04-18T19:33:58.268Z,14.41
2023-04-18T19:39:59.588Z,14.52
2023-04-18T19:42:27.431Z,14.39
2023-04-18T19:44:56.323Z,14.31
2023-04-18T19:47:24.688Z,14.22
2023-04-18T19:53:12.523Z,14.07
2023-04-18T19:55:45.855Z,13.91
2023-04-18T19:58:35.292Z,13.81
2023-04-18T20:01:08.900Z,13.87
2023-04-18T20:03:37.691Z,13.74
2023-04-18T20:06:06.893Z,13.67
2023-04-18T20:08:36.974Z,13.62
2023-04-18T20:11:08.344Z,13.58
2023-04-18T20:13:37.500Z,13.58
2023-04-18T20:16:09.624Z,13.65
2023-04-18T20:18:39.972Z,13.63
2023-04-18T20:21:11.316Z,13.63
2023-04-18T20:23:42.746Z,13.65
2023-04-18T20:26:11.086Z,13.65
2023-04-18T20:28:39.276Z,13.63
2023-04-18T20:31:07.763Z,13.58
2023-04-18T20:33:38.057Z,13.53
2023-04-18T20:36:07.113Z,13.59
2023-04-18T20:38:35.142Z,13.58
2023-04-18T20:41:04.360Z,13.61
2023-04-18T20:43:37.386Z,13.70
2023-04-18T20:46:07.927Z,13.60
2023-04-18T20:48:36.000Z,13.59
2023-04-18T20:51:03.625Z,13.66
2023-04-18T20:53:32.160Z,13.59
2023-04-18T20:56:05.551Z,13.56
2023-04-18T20:58:33.316Z,13.52
2023-04-18T21:01:00.540Z,13.57
2023-04-18T21:03:28.469Z,13.42
2023-04-18T21:05:56.207Z,13.51
2023-04-18T21:08:23.467Z,13.51
2023-04-18T21:10:50.677Z,13.47
2023-04-18T21:13:18.115Z,13.43
2023-04-18T21:15:45.388Z,13.46
2023-04-18T21:18:12.627Z,13.48
2023-04-18T21:20:40.067Z,13.38
2023-04-18T21:23:07.296Z,13.36
2023-04-18T21:25:34.522Z,13.29
2023-04-18T21:28:02.468Z,13.23
2023-04-18T21:30:29.712Z,13.24
2023-04-18T21:32:57.035Z,13.24
2023-04-18T21:35:25.104Z,13.17
2023-04-18T21:37:52.383Z,13.17
2023-04-18T21:40:19.687Z,13.12
2023-04-18T21:42:48.159Z,13.13
2023-04-18T21:45:17.627Z,13.08
2023-04-18T21:47:44.827Z,13.03
2023-04-18T21:53:43.195Z,13.06
2023-04-18T21:56:11.080Z,13.04
2023-04-18T21:58:38.413Z,13.01
2023-04-18T22:01:05.714Z,12.98
2023-04-18T22:03:34.242Z,12.95
2023-04-18T22:06:01.799Z,12.82
2023-04-18T22:08:29.592Z,12.79
2023-04-18T22:10:59.050Z,12.89
2023-04-18T22:13:33.266Z,13.04
2023-04-18T22:16:04.903Z,13.01
2023-04-18T22:18:34.044Z,12.96
2023-04-18T22:21:03.376Z,12.98
2023-04-18T22:23:30.872Z,12.91
2023-04-18T22:25:58.149Z,12.88
2023-04-18T22:28:27.959Z,12.88
2023-04-18T22:30:55.426Z,12.88
2023-04-18T22:33:22.654Z,12.88
2023-04-18T22:35:50.391Z,12.91
2023-04-18T22:38:17.651Z,12.90
2023-04-18T22:40:44.891Z,12.89
2023-04-18T22:43:12.433Z,12.87
2023-04-18T22:45:39.943Z,12.81
2023-04-18T22:48:11.428Z,12.84
2023-04-18T22:50:42.700Z,12.78
2023-04-18T22:53:14.404Z,12.79
2023-04-18T22:55:43.479Z,12.89
2023-04-18T22:58:11.408Z,12.89
2023-04-18T23:00:38.609Z,12.81
2023-04-18T23:03:06.318Z,12.77
2023-04-18T23:05:34.417Z,12.79
2023-04-18T23:08:01.913Z,12.78
2023-04-18T23:10:29.464Z,12.78
2023-04-18T23:12:57.015Z,12.71
2023-04-18T23:15:26.296Z,12.75
2023-04-18T23:17:54.277Z,12.67
2023-04-18T23:20:21.899Z,12.69
2023-04-18T23:22:51.592Z,12.69
2023-04-18T23:25:22.589Z,12.67
2023-04-18T23:27:50.005Z,12.67
2023-04-18T23:30:17.350Z,12.60
2023-04-18T23:32:44.908Z,12.58
2023-04-18T23:35:12.161Z,12.57
2023-04-18T23:37:39.332Z,12.59
2023-04-18T23:40:08.091Z,12.56
2023-04-18T23:42:35.867Z,12.64
2023-04-18T23:45:04.141Z,12.66
2023-04-18T23:47:31.875Z,12.60
2023-04-18T23:49:59.078Z,12.65
2023-04-18T23:52:26.220Z,12.72
2023-04-18T23:54:53.786Z,12.72
2023-04-18T23:57:21.050Z,12.76
2023-04-18T23:59:48.259Z,12.72
